sensor_id;sensor_type;location;lat;lon;timestamp;pressure;altitude;pressure_sealevel;temperature
66299;BMP180;53098;47.658;8.578;2023-11-21T00:00:48;95918.00;;;9.10
66299;BMP180;53098;47.658;8.578;2023-11-21T00:03:14;95918.00;;;9.00
66299;BMP180;53098;47.658;8.578;2023-11-21T00:05:39;95916.00;;;9.00
66299;BMP180;53098;47.658;8.578;2023-11-21T00:08:05;95917.00;;;8.90
66299;BMP180;53098;47.658;8.578;2023-11-21T00:10:30;95913.00;;;8.90
66299;BMP180;53098;47.658;8.578;2023-11-21T00:12:56;95911.00;;;9.00
66299;BMP180;53098;47.658;8.578;2023-11-21T00:15:21;95910.00;;;9.00
66299;BMP180;53098;47.658;8.578;2023-11-21T00:17:47;95908.00;;;8.90
66299;BMP180;53098;47.658;8.578;2023-11-21T00:20:12;95910.00;;;9.00
66299;BMP180;53098;47.658;8.578;2023-11-21T00:22:38;95914.00;;;9.00
66299;BMP180;53098;47.658;8.578;2023-11-21T00:25:04;95916.00;;;9.10
66299;BMP180;53098;47.658;8.578;2023-11-21T00:27:30;95910.00;;;9.10
66299;BMP180;53098;47.658;8.578;2023-11-21T00:29:55;95923.00;;;8.90
66299;BMP180;53098;47.658;8.578;2023-11-21T00:32:21;95924.00;;;9.00
66299;BMP180;53098;47.658;8.578;2023-11-21T00:34:46;95921.00;;;8.90
66299;BMP180;53098;47.658;8.578;2023-11-21T00:37:12;95921.00;;;9.00
66299;BMP180;53098;47.658;8.578;2023-11-21T00:39:37;95916.00;;;9.00
66299;BMP180;53098;47.658;8.578;2023-11-21T00:42:03;95909.00;;;9.10
66299;BMP180;53098;47.658;8.578;2023-11-21T00:44:28;95920.00;;;9.10
66299;BMP180;53098;47.658;8.578;2023-11-21T00:46:54;95903.00;;;9.10
66299;BMP180;53098;47.658;8.578;2023-11-21T00:49:19;95900.00;;;9.10
66299;BMP180;53098;47.658;8.578;2023-11-21T00:51:45;95901.00;;;9.00
66299;BMP180;53098;47.658;8.578;2023-11-21T00:54:10;95909.00;;;8.90
66299;BMP180;53098;47.658;8.578;2023-11-21T00:56:36;95904.00;;;8.90
66299;BMP180;53098;47.658;8.578;2023-11-21T00:59:01;95901.00;;;9.00
66299;BMP180;53098;47.658;8.578;2023-11-21T01:01:27;95894.00;;;9.00
66299;BMP180;53098;47.658;8.578;2023-11-21T01:03:52;95898.00;;;9.00
66299;BMP180;53098;47.658;8.578;2023-11-21T01:06:18;95901.00;;;9.10
66299;BMP180;53098;47.658;8.578;2023-11-21T01:08:44;95905.00;;;9.10
66299;BMP180;53098;47.658;8.578;2023-11-21T01:11:10;95895.00;;;9.10
66299;BMP180;53098;47.658;8.578;2023-11-21T01:13:35;95894.00;;;9.10
66299;BMP180;53098;47.658;8.578;2023-11-21T01:16:01;95899.00;;;9.00
66299;BMP180;53098;47.658;8.578;2023-11-21T01:18:26;95897.00;;;9.00
66299;BMP180;53098;47.658;8.578;2023-11-21T01:20:52;95900.00;;;9.00
66299;BMP180;53098;47.658;8.578;2023-11-21T01:23:17;95904.00;;;9.00
66299;BMP180;53098;47.658;8.578;2023-11-21T01:25:42;95904.00;;;9.00
66299;BMP180;53098;47.658;8.578;2023-11-21T01:28:08;228747.00;;;8.90
66299;BMP180;53098;47.658;8.578;2023-11-21T01:30:33;95916.00;;;9.00
66299;BMP180;53098;47.658;8.578;2023-11-21T01:32:59;95917.00;;;8.90
66299;BMP180;53098;47.658;8.578;2023-11-21T01:35:24;95915.00;;;8.90
66299;BMP180;53098;47.658;8.578;2023-11-21T01:37:49;95912.00;;;8.90
66299;BMP180;53098;47.658;8.578;2023-11-21T01:40:15;95914.00;;;8.70
66299;BMP180;53098;47.658;8.578;2023-11-21T01:42:41;95908.00;;;8.90
66299;BMP180;53098;47.658;8.578;2023-11-21T01:45:07;95916.00;;;8.90
66299;BMP180;53098;47.658;8.578;2023-11-21T01:47:33;95915.00;;;8.80
66299;BMP180;53098;47.658;8.578;2023-11-21T01:49:59;95916.00;;;8.90
66299;BMP180;53098;47.658;8.578;2023-11-21T01:52:25;95915.00;;;8.90
66299;BMP180;53098;47.658;8.578;2023-11-21T01:54:51;95915.00;;;8.90
66299;BMP180;53098;47.658;8.578;2023-11-21T01:57:16;95915.00;;;8.90
66299;BMP180;53098;47.658;8.578;2023-11-21T01:59:42;95917.00;;;8.90
66299;BMP180;53098;47.658;8.578;2023-11-21T02:02:09;95919.00;;;8.90
66299;BMP180;53098;47.658;8.578;2023-11-21T02:04:36;95914.00;;;8.70
66299;BMP180;53098;47.658;8.578;2023-11-21T02:07:02;95917.00;;;8.70
66299;BMP180;53098;47.658;8.578;2023-11-21T02:09:28;95912.00;;;8.80
66299;BMP180;53098;47.658;8.578;2023-11-21T02:11:54;95912.00;;;8.80
66299;BMP180;53098;47.658;8.578;2023-11-21T02:14:20;95912.00;;;8.80
66299;BMP180;53098;47.658;8.578;2023-11-21T02:16:45;95910.00;;;8.80
66299;BMP180;53098;47.658;8.578;2023-11-21T02:19:14;95910.00;;;8.80
66299;BMP180;53098;47.658;8.578;2023-11-21T02:21:42;95917.00;;;8.70
66299;BMP180;53098;47.658;8.578;2023-11-21T02:24:08;95912.00;;;8.70
66299;BMP180;53098;47.658;8.578;2023-11-21T02:26:33;95909.00;;;8.70
66299;BMP180;53098;47.658;8.578;2023-11-21T02:28:59;95910.00;;;8.60
66299;BMP180;53098;47.658;8.578;2023-11-21T02:31:24;95909.00;;;8.70
66299;BMP180;53098;47.658;8.578;2023-11-21T02:33:50;95910.00;;;8.70
66299;BMP180;53098;47.658;8.578;2023-11-21T02:36:15;95904.00;;;8.70
66299;BMP180;53098;47.658;8.578;2023-11-21T02:38:40;95906.00;;;8.70
66299;BMP180;53098;47.658;8.578;2023-11-21T02:41:06;95899.00;;;8.70
66299;BMP180;53098;47.658;8.578;2023-11-21T02:43:31;95899.00;;;8.70
66299;BMP180;53098;47.658;8.578;2023-11-21T02:45:57;95902.00;;;8.70
66299;BMP180;53098;47.658;8.578;2023-11-21T02:48:22;95896.00;;;8.70
66299;BMP180;53098;47.658;8.578;2023-11-21T02:50:48;95889.00;;;8.70
66299;BMP180;53098;47.658;8.578;2023-11-21T02:53:13;95895.00;;;8.70
66299;BMP180;53098;47.658;8.578;2023-11-21T02:55:38;95896.00;;;8.70
66299;BMP180;53098;47.658;8.578;2023-11-21T02:58:04;95887.00;;;8.80
66299;BMP180;53098;47.658;8.578;2023-11-21T03:00:29;95890.00;;;8.80
66299;BMP180;53098;47.658;8.578;2023-11-21T03:02:55;95901.00;;;8.80
66299;BMP180;53098;47.658;8.578;2023-11-21T03:05:21;95885.00;;;8.70
66299;BMP180;53098;47.658;8.578;2023-11-21T03:07:46;95890.00;;;8.70
66299;BMP180;53098;47.658;8.578;2023-11-21T03:10:12;95891.00;;;8.70
66299;BMP180;53098;47.658;8.578;2023-11-21T03:12:38;95892.00;;;8.70
66299;BMP180;53098;47.658;8.578;2023-11-21T03:15:05;95886.00;;;8.70
66299;BMP180;53098;47.658;8.578;2023-11-21T03:17:31;95884.00;;;8.60
66299;BMP180;53098;47.658;8.578;2023-11-21T03:19:56;95877.00;;;8.60
66299;BMP180;53098;47.658;8.578;2023-11-21T03:22:21;95870.00;;;8.60
66299;BMP180;53098;47.658;8.578;2023-11-21T03:24:47;95882.00;;;8.50
66299;BMP180;53098;47.658;8.578;2023-11-21T03:27:12;95867.00;;;8.40
66299;BMP180;53098;47.658;8.578;2023-11-21T03:29:38;228747.00;;;220.60
66299;BMP180;53098;47.658;8.578;2023-11-21T03:32:03;228747.00;;;220.60
66299;BMP180;53098;47.658;8.578;2023-11-21T03:34:29;228747.00;;;220.60
66299;BMP180;53098;47.658;8.578;2023-11-21T03:36:54;95863.00;;;8.20
66299;BMP180;53098;47.658;8.578;2023-11-21T03:39:20;95842.00;;;8.30
66299;BMP180;53098;47.658;8.578;2023-11-21T03:41:46;95854.00;;;8.30
66299;BMP180;53098;47.658;8.578;2023-11-21T03:44:13;95848.00;;;8.20
66299;BMP180;53098;47.658;8.578;2023-11-21T03:46:38;95854.00;;;8.20
66299;BMP180;53098;47.658;8.578;2023-11-21T03:49:03;95857.00;;;8.20
66299;BMP180;53098;47.658;8.578;2023-11-21T03:51:29;95865.00;;;8.10
66299;BMP180;53098;47.658;8.578;2023-11-21T03:53:54;228747.00;;;220.60
66299;BMP180;53098;47.658;8.578;2023-11-21T03:56:19;228747.00;;;220.60
66299;BMP180;53098;47.658;8.578;2023-11-21T03:58:45;228747.00;;;220.60
66299;BMP180;53098;47.658;8.578;2023-11-21T04:01:10;228747.00;;;220.60
66299;BMP180;53098;47.658;8.578;2023-11-21T04:03:36;228747.00;;;220.60
66299;BMP180;53098;47.658;8.578;2023-11-21T04:06:01;228747.00;;;220.60
66299;BMP180;53098;47.658;8.578;2023-11-21T04:08:27;228747.00;;;220.60
66299;BMP180;53098;47.658;8.578;2023-11-21T04:10:52;228747.00;;;220.60
66299;BMP180;53098;47.658;8.578;2023-11-21T04:13:17;228747.00;;;220.60
66299;BMP180;53098;47.658;8.578;2023-11-21T04:15:43;228747.00;;;220.60
66299;BMP180;53098;47.658;8.578;2023-11-21T04:18:08;228747.00;;;220.60
66299;BMP180;53098;47.658;8.578;2023-11-21T04:20:34;228747.00;;;220.60
66299;BMP180;53098;47.658;8.578;2023-11-21T04:22:59;228747.00;;;220.60
66299;BMP180;53098;47.658;8.578;2023-11-21T04:25:25;144313.00;;;8.20
66299;BMP180;53098;47.658;8.578;2023-11-21T04:27:50;95876.00;;;8.20
66299;BMP180;53098;47.658;8.578;2023-11-21T04:30:16;95871.00;;;8.20
66299;BMP180;53098;47.658;8.578;2023-11-21T04:32:41;95872.00;;;8.10
66299;BMP180;53098;47.658;8.578;2023-11-21T04:35:08;95882.00;;;8.20
66299;BMP180;53098;47.658;8.578;2023-11-21T04:37:33;95875.00;;;8.20
66299;BMP180;53098;47.658;8.578;2023-11-21T04:39:59;95874.00;;;8.30
66299;BMP180;53098;47.658;8.578;2023-11-21T04:42:24;95883.00;;;8.30
66299;BMP180;53098;47.658;8.578;2023-11-21T04:44:50;95873.00;;;8.20
66299;BMP180;53098;47.658;8.578;2023-11-21T04:47:15;95876.00;;;8.30
66299;BMP180;53098;47.658;8.578;2023-11-21T04:49:42;95884.00;;;8.20
66299;BMP180;53098;47.658;8.578;2023-11-21T04:52:08;95892.00;;;8.30
66299;BMP180;53098;47.658;8.578;2023-11-21T04:54:33;95894.00;;;8.30
66299;BMP180;53098;47.658;8.578;2023-11-21T04:56:58;95890.00;;;8.30
66299;BMP180;53098;47.658;8.578;2023-11-21T04:59:24;95879.00;;;8.30
66299;BMP180;53098;47.658;8.578;2023-11-21T05:01:49;95884.00;;;8.30
66299;BMP180;53098;47.658;8.578;2023-11-21T05:04:15;95893.00;;;8.30
66299;BMP180;53098;47.658;8.578;2023-11-21T05:06:40;95892.00;;;8.30
66299;BMP180;53098;47.658;8.578;2023-11-21T05:09:06;95895.00;;;8.30
66299;BMP180;53098;47.658;8.578;2023-11-21T05:11:31;95900.00;;;8.30
66299;BMP180;53098;47.658;8.578;2023-11-21T05:13:56;95905.00;;;8.30
66299;BMP180;53098;47.658;8.578;2023-11-21T05:16:22;95895.00;;;8.20
66299;BMP180;53098;47.658;8.578;2023-11-21T05:18:48;95902.00;;;8.30
66299;BMP180;53098;47.658;8.578;2023-11-21T05:21:13;95898.00;;;8.20
66299;BMP180;53098;47.658;8.578;2023-11-21T05:23:38;95897.00;;;8.30
66299;BMP180;53098;47.658;8.578;2023-11-21T05:26:04;95904.00;;;8.30
66299;BMP180;53098;47.658;8.578;2023-11-21T05:28:29;95899.00;;;8.30
66299;BMP180;53098;47.658;8.578;2023-11-21T05:30:55;95899.00;;;8.30
66299;BMP180;53098;47.658;8.578;2023-11-21T05:33:20;95901.00;;;8.30
66299;BMP180;53098;47.658;8.578;2023-11-21T05:35:46;95897.00;;;8.30
66299;BMP180;53098;47.658;8.578;2023-11-21T05:38:11;95909.00;;;8.30
66299;BMP180;53098;47.658;8.578;2023-11-21T05:40:37;95910.00;;;8.30
66299;BMP180;53098;47.658;8.578;2023-11-21T05:43:02;95910.00;;;8.30
66299;BMP180;53098;47.658;8.578;2023-11-21T05:45:28;95910.00;;;8.30
66299;BMP180;53098;47.658;8.578;2023-11-21T05:47:53;95920.00;;;8.30
66299;BMP180;53098;47.658;8.578;2023-11-21T05:50:19;95910.00;;;8.40
66299;BMP180;53098;47.658;8.578;2023-11-21T05:52:45;95903.00;;;8.30
66299;BMP180;53098;47.658;8.578;2023-11-21T05:55:11;95915.00;;;8.40
66299;BMP180;53098;47.658;8.578;2023-11-21T05:57:38;95910.00;;;8.30
66299;BMP180;53098;47.658;8.578;2023-11-21T06:00:05;95908.00;;;8.30
66299;BMP180;53098;47.658;8.578;2023-11-21T06:02:31;95916.00;;;8.30
66299;BMP180;53098;47.658;8.578;2023-11-21T06:04:56;95918.00;;;8.30
66299;BMP180;53098;47.658;8.578;2023-11-21T06:07:22;95917.00;;;8.30
66299;BMP180;53098;47.658;8.578;2023-11-21T06:09:47;95922.00;;;8.30
66299;BMP180;53098;47.658;8.578;2023-11-21T06:12:13;95926.00;;;8.20
66299;BMP180;53098;47.658;8.578;2023-11-21T06:14:38;95927.00;;;8.20
66299;BMP180;53098;47.658;8.578;2023-11-21T06:17:03;95936.00;;;8.20
66299;BMP180;53098;47.658;8.578;2023-11-21T06:19:29;95939.00;;;8.30
66299;BMP180;53098;47.658;8.578;2023-11-21T06:21:54;95937.00;;;8.20
66299;BMP180;53098;47.658;8.578;2023-11-21T06:24:19;95940.00;;;8.20
66299;BMP180;53098;47.658;8.578;2023-11-21T06:26:45;95934.00;;;8.10
66299;BMP180;53098;47.658;8.578;2023-11-21T06:29:10;95940.00;;;8.10
66299;BMP180;53098;47.658;8.578;2023-11-21T06:31:36;95937.00;;;8.20
66299;BMP180;53098;47.658;8.578;2023-11-21T06:34:01;95941.00;;;8.20
66299;BMP180;53098;47.658;8.578;2023-11-21T06:36:27;95950.00;;;8.10
66299;BMP180;53098;47.658;8.578;2023-11-21T06:38:52;95945.00;;;8.10
66299;BMP180;53098;47.658;8.578;2023-11-21T06:41:17;95941.00;;;8.20
66299;BMP180;53098;47.658;8.578;2023-11-21T06:43:43;95946.00;;;8.20
66299;BMP180;53098;47.658;8.578;2023-11-21T06:46:10;95952.00;;;8.20
66299;BMP180;53098;47.658;8.578;2023-11-21T06:48:35;95958.00;;;8.20
66299;BMP180;53098;47.658;8.578;2023-11-21T06:51:01;95963.00;;;8.20
66299;BMP180;53098;47.658;8.578;2023-11-21T06:53:26;95959.00;;;8.30
66299;BMP180;53098;47.658;8.578;2023-11-21T06:55:52;95952.00;;;8.20
66299;BMP180;53098;47.658;8.578;2023-11-21T06:58:17;95966.00;;;8.20
66299;BMP180;53098;47.658;8.578;2023-11-21T07:00:43;95966.00;;;8.20
66299;BMP180;53098;47.658;8.578;2023-11-21T07:03:08;95964.00;;;8.20
66299;BMP180;53098;47.658;8.578;2023-11-21T07:05:33;95962.00;;;8.30
66299;BMP180;53098;47.658;8.578;2023-11-21T07:07:59;95967.00;;;8.20
66299;BMP180;53098;47.658;8.578;2023-11-21T07:10:24;95971.00;;;8.30
66299;BMP180;53098;47.658;8.578;2023-11-21T07:12:50;95959.00;;;8.30
66299;BMP180;53098;47.658;8.578;2023-11-21T07:15:15;95976.00;;;8.30
66299;BMP180;53098;47.658;8.578;2023-11-21T07:17:41;95962.00;;;8.30
66299;BMP180;53098;47.658;8.578;2023-11-21T07:20:06;95977.00;;;8.30
66299;BMP180;53098;47.658;8.578;2023-11-21T07:22:32;95973.00;;;8.30
66299;BMP180;53098;47.658;8.578;2023-11-21T07:24:57;95964.00;;;8.30
66299;BMP180;53098;47.658;8.578;2023-11-21T07:27:23;95965.00;;;8.30
66299;BMP180;53098;47.658;8.578;2023-11-21T07:29:48;95976.00;;;8.20
66299;BMP180;53098;47.658;8.578;2023-11-21T07:32:14;95976.00;;;8.30
66299;BMP180;53098;47.658;8.578;2023-11-21T07:34:39;95965.00;;;8.20
66299;BMP180;53098;47.658;8.578;2023-11-21T07:37:04;95967.00;;;8.20
66299;BMP180;53098;47.658;8.578;2023-11-21T07:39:30;95972.00;;;8.20
66299;BMP180;53098;47.658;8.578;2023-11-21T07:41:55;95974.00;;;8.20
66299;BMP180;53098;47.658;8.578;2023-11-21T07:44:21;95977.00;;;8.30
66299;BMP180;53098;47.658;8.578;2023-11-21T07:46:46;95991.00;;;8.30
66299;BMP180;53098;47.658;8.578;2023-11-21T07:49:12;95985.00;;;8.30
66299;BMP180;53098;47.658;8.578;2023-11-21T07:51:37;95983.00;;;8.20
66299;BMP180;53098;47.658;8.578;2023-11-21T07:54:03;95991.00;;;8.30
66299;BMP180;53098;47.658;8.578;2023-11-21T07:56:28;95988.00;;;8.30
66299;BMP180;53098;47.658;8.578;2023-11-21T07:58:53;95994.00;;;8.30
66299;BMP180;53098;47.658;8.578;2023-11-21T08:01:19;95994.00;;;8.40
66299;BMP180;53098;47.658;8.578;2023-11-21T08:03:44;95993.00;;;8.40
66299;BMP180;53098;47.658;8.578;2023-11-21T08:06:10;95987.00;;;8.50
66299;BMP180;53098;47.658;8.578;2023-11-21T08:08:35;95995.00;;;8.50
66299;BMP180;53098;47.658;8.578;2023-11-21T08:11:00;95988.00;;;8.50
66299;BMP180;53098;47.658;8.578;2023-11-21T08:13:27;95982.00;;;8.60
66299;BMP180;53098;47.658;8.578;2023-11-21T08:15:57;95991.00;;;8.60
66299;BMP180;53098;47.658;8.578;2023-11-21T08:18:22;95990.00;;;8.60
66299;BMP180;53098;47.658;8.578;2023-11-21T08:20:48;95985.00;;;8.60
66299;BMP180;53098;47.658;8.578;2023-11-21T08:23:16;95997.00;;;8.60
66299;BMP180;53098;47.658;8.578;2023-11-21T08:25:43;95994.00;;;8.60
66299;BMP180;53098;47.658;8.578;2023-11-21T08:28:09;95988.00;;;8.70
66299;BMP180;53098;47.658;8.578;2023-11-21T08:30:34;96000.00;;;8.70
66299;BMP180;53098;47.658;8.578;2023-11-21T08:33:00;95997.00;;;8.70
66299;BMP180;53098;47.658;8.578;2023-11-21T08:35:25;96002.00;;;8.70
66299;BMP180;53098;47.658;8.578;2023-11-21T08:37:53;95993.00;;;8.80
66299;BMP180;53098;47.658;8.578;2023-11-21T08:40:19;96000.00;;;8.80
66299;BMP180;53098;47.658;8.578;2023-11-21T08:42:45;95989.00;;;8.80
66299;BMP180;53098;47.658;8.578;2023-11-21T08:45:10;95989.00;;;8.80
66299;BMP180;53098;47.658;8.578;2023-11-21T08:47:35;95997.00;;;8.80
66299;BMP180;53098;47.658;8.578;2023-11-21T08:50:01;95996.00;;;8.80
66299;BMP180;53098;47.658;8.578;2023-11-21T08:52:26;95995.00;;;8.90
66299;BMP180;53098;47.658;8.578;2023-11-21T08:54:52;96002.00;;;8.90
66299;BMP180;53098;47.658;8.578;2023-11-21T08:57:17;95998.00;;;8.80
66299;BMP180;53098;47.658;8.578;2023-11-21T08:59:43;96001.00;;;8.40
66299;BMP180;53098;47.658;8.578;2023-11-21T09:02:08;96003.00;;;8.60
66299;BMP180;53098;47.658;8.578;2023-11-21T09:04:33;96010.00;;;8.70
66299;BMP180;53098;47.658;8.578;2023-11-21T09:06:59;96011.00;;;8.50
66299;BMP180;53098;47.658;8.578;2023-11-21T09:09:24;96014.00;;;8.80
66299;BMP180;53098;47.658;8.578;2023-11-21T09:11:50;96026.00;;;8.80
66299;BMP180;53098;47.658;8.578;2023-11-21T09:14:15;96022.00;;;8.70
66299;BMP180;53098;47.658;8.578;2023-11-21T09:16:40;96024.00;;;8.70
66299;BMP180;53098;47.658;8.578;2023-11-21T09:19:06;96030.00;;;8.70
66299;BMP180;53098;47.658;8.578;2023-11-21T09:21:31;96023.00;;;8.60
66299;BMP180;53098;47.658;8.578;2023-11-21T09:23:56;96013.00;;;8.70
66299;BMP180;53098;47.658;8.578;2023-11-21T09:26:22;96021.00;;;8.90
66299;BMP180;53098;47.658;8.578;2023-11-21T09:28:47;96027.00;;;9.00
66299;BMP180;53098;47.658;8.578;2023-11-21T09:31:13;96021.00;;;9.10
66299;BMP180;53098;47.658;8.578;2023-11-21T09:33:39;96027.00;;;9.10
66299;BMP180;53098;47.658;8.578;2023-11-21T09:36:05;96036.00;;;9.20
66299;BMP180;53098;47.658;8.578;2023-11-21T09:38:31;96032.00;;;9.20
66299;BMP180;53098;47.658;8.578;2023-11-21T09:40:56;96036.00;;;9.40
66299;BMP180;53098;47.658;8.578;2023-11-21T09:43:22;96038.00;;;9.40
66299;BMP180;53098;47.658;8.578;2023-11-21T09:45:56;96025.00;;;9.40
66299;BMP180;53098;47.658;8.578;2023-11-21T09:48:24;228747.00;;;220.60
66299;BMP180;53098;47.658;8.578;2023-11-21T09:50:50;228747.00;;;220.60
66299;BMP180;53098;47.658;8.578;2023-11-21T09:53:20;96003.00;;;10.50
66299;BMP180;53098;47.658;8.578;2023-11-21T09:55:51;95990.00;;;11.70
66299;BMP180;53098;47.658;8.578;2023-11-21T09:58:17;228747.00;;;220.60
66299;BMP180;53098;47.658;8.578;2023-11-21T10:00:47;95912.00;;;12.10
66299;BMP180;53098;47.658;8.578;2023-11-21T10:03:13;96028.00;;;12.00
66299;BMP180;53098;47.658;8.578;2023-11-21T10:05:40;96029.00;;;11.90
66299;BMP180;53098;47.658;8.578;2023-11-21T10:08:10;96031.00;;;11.90
66299;BMP180;53098;47.658;8.578;2023-11-21T10:10:37;96036.00;;;11.60
66299;BMP180;53098;47.658;8.578;2023-11-21T10:13:04;96369.00;;;10.70
66299;BMP180;53098;47.658;8.578;2023-11-21T10:15:30;96027.00;;;11.40
66299;BMP180;53098;47.658;8.578;2023-11-21T10:17:56;96034.00;;;11.60
66299;BMP180;53098;47.658;8.578;2023-11-21T10:20:23;96033.00;;;11.40
66299;BMP180;53098;47.658;8.578;2023-11-21T10:22:49;96029.00;;;11.20
66299;BMP180;53098;47.658;8.578;2023-11-21T10:25:15;96041.00;;;11.00
66299;BMP180;53098;47.658;8.578;2023-11-21T10:27:41;228747.00;;;220.60
66299;BMP180;53098;47.658;8.578;2023-11-21T10:30:07;80312.00;;;10.60
66299;BMP180;53098;47.658;8.578;2023-11-21T10:32:33;96035.00;;;10.40
66299;BMP180;53098;47.658;8.578;2023-11-21T10:34:59;96021.00;;;10.30
66299;BMP180;53098;47.658;8.578;2023-11-21T10:37:25;96026.00;;;10.30
66299;BMP180;53098;47.658;8.578;2023-11-21T10:39:50;96034.00;;;10.20
66299;BMP180;53098;47.658;8.578;2023-11-21T10:42:17;96040.00;;;10.10
66299;BMP180;53098;47.658;8.578;2023-11-21T10:44:43;96037.00;;;10.00
66299;BMP180;53098;47.658;8.578;2023-11-21T10:47:11;96039.00;;;10.00
66299;BMP180;53098;47.658;8.578;2023-11-21T10:49:36;96045.00;;;10.00
66299;BMP180;53098;47.658;8.578;2023-11-21T10:52:02;96041.00;;;10.00
66299;BMP180;53098;47.658;8.578;2023-11-21T10:54:28;96040.00;;;10.00
66299;BMP180;53098;47.658;8.578;2023-11-21T10:56:57;96040.00;;;10.10
66299;BMP180;53098;47.658;8.578;2023-11-21T10:59:23;96032.00;;;10.10
66299;BMP180;53098;47.658;8.578;2023-11-21T11:01:48;96030.00;;;10.20
66299;BMP180;53098;47.658;8.578;2023-11-21T11:04:18;96034.00;;;10.30
66299;BMP180;53098;47.658;8.578;2023-11-21T11:06:44;96037.00;;;10.30
66299;BMP180;53098;47.658;8.578;2023-11-21T11:09:13;96035.00;;;10.30
66299;BMP180;53098;47.658;8.578;2023-11-21T11:11:40;96032.00;;;10.40
66299;BMP180;53098;47.658;8.578;2023-11-21T11:14:05;96034.00;;;10.40
66299;BMP180;53098;47.658;8.578;2023-11-21T11:16:31;96020.00;;;10.10
66299;BMP180;53098;47.658;8.578;2023-11-21T11:18:56;96032.00;;;10.10
66299;BMP180;53098;47.658;8.578;2023-11-21T11:29:54;96034.00;;;10.20
66299;BMP180;53098;47.658;8.578;2023-11-21T11:32:29;96045.00;;;10.10
66299;BMP180;53098;47.658;8.578;2023-11-21T11:35:10;96020.00;;;10.10
66299;BMP180;53098;47.658;8.578;2023-11-21T11:37:39;96027.00;;;10.30
66299;BMP180;53098;47.658;8.578;2023-11-21T11:40:08;96021.00;;;10.30
66299;BMP180;53098;47.658;8.578;2023-11-21T11:42:36;96009.00;;;10.50
66299;BMP180;53098;47.658;8.578;2023-11-21T11:45:01;96006.00;;;10.70
66299;BMP180;53098;47.658;8.578;2023-11-21T11:47:28;96008.00;;;11.00
66299;BMP180;53098;47.658;8.578;2023-11-21T11:50:08;95970.00;;;11.40
66299;BMP180;53098;47.658;8.578;2023-11-21T11:52:45;95959.00;;;11.70
66299;BMP180;53098;47.658;8.578;2023-11-21T11:55:15;95966.00;;;12.30
66299;BMP180;53098;47.658;8.578;2023-11-21T11:57:42;95979.00;;;13.10
66299;BMP180;53098;47.658;8.578;2023-11-21T12:00:20;96012.00;;;13.10
66299;BMP180;53098;47.658;8.578;2023-11-21T12:02:50;96022.00;;;12.60
66299;BMP180;53098;47.658;8.578;2023-11-21T12:05:17;96027.00;;;12.30
66299;BMP180;53098;47.658;8.578;2023-11-21T12:10:12;96028.00;;;11.70
66299;BMP180;53098;47.658;8.578;2023-11-21T12:12:37;96034.00;;;11.60
66299;BMP180;53098;47.658;8.578;2023-11-21T12:15:03;96038.00;;;11.40
66299;BMP180;53098;47.658;8.578;2023-11-21T12:17:29;96030.00;;;11.20
66299;BMP180;53098;47.658;8.578;2023-11-21T12:20:01;96042.00;;;11.20
66299;BMP180;53098;47.658;8.578;2023-11-21T12:22:28;96029.00;;;11.10
66299;BMP180;53098;47.658;8.578;2023-11-21T12:24:53;96033.00;;;11.10
66299;BMP180;53098;47.658;8.578;2023-11-21T12:27:20;96031.00;;;11.20
66299;BMP180;53098;47.658;8.578;2023-11-21T12:29:46;96038.00;;;11.20
66299;BMP180;53098;47.658;8.578;2023-11-21T12:32:11;96039.00;;;11.20
66299;BMP180;53098;47.658;8.578;2023-11-21T12:34:37;96046.00;;;10.90
66299;BMP180;53098;47.658;8.578;2023-11-21T12:37:03;96047.00;;;11.00
66299;BMP180;53098;47.658;8.578;2023-11-21T12:39:28;96050.00;;;11.00
66299;BMP180;53098;47.658;8.578;2023-11-21T12:41:53;96056.00;;;11.00
66299;BMP180;53098;47.658;8.578;2023-11-21T12:44:19;96049.00;;;11.00
66299;BMP180;53098;47.658;8.578;2023-11-21T12:46:44;96044.00;;;10.90
66299;BMP180;53098;47.658;8.578;2023-11-21T12:49:11;96060.00;;;10.80
66299;BMP180;53098;47.658;8.578;2023-11-21T12:51:36;96047.00;;;10.80
66299;BMP180;53098;47.658;8.578;2023-11-21T12:54:02;96052.00;;;10.80
66299;BMP180;53098;47.658;8.578;2023-11-21T12:56:27;96049.00;;;10.80
66299;BMP180;53098;47.658;8.578;2023-11-21T12:58:53;96050.00;;;10.60
66299;BMP180;53098;47.658;8.578;2023-11-21T13:01:19;96058.00;;;10.70
66299;BMP180;53098;47.658;8.578;2023-11-21T13:03:48;96053.00;;;10.70
66299;BMP180;53098;47.658;8.578;2023-11-21T13:06:15;96059.00;;;10.50
66299;BMP180;53098;47.658;8.578;2023-11-21T13:08:40;96057.00;;;10.50
66299;BMP180;53098;47.658;8.578;2023-11-21T13:11:05;96059.00;;;10.50
66299;BMP180;53098;47.658;8.578;2023-11-21T13:13:31;96059.00;;;10.50
66299;BMP180;53098;47.658;8.578;2023-11-21T13:15:59;96052.00;;;10.40
66299;BMP180;53098;47.658;8.578;2023-11-21T13:18:26;96053.00;;;10.50
66299;BMP180;53098;47.658;8.578;2023-11-21T13:20:55;96062.00;;;10.50
66299;BMP180;53098;47.658;8.578;2023-11-21T13:23:21;96057.00;;;10.50
66299;BMP180;53098;47.658;8.578;2023-11-21T13:25:46;96063.00;;;10.60
66299;BMP180;53098;47.658;8.578;2023-11-21T13:28:12;96065.00;;;10.50
66299;BMP180;53098;47.658;8.578;2023-11-21T13:30:38;96064.00;;;10.50
66299;BMP180;53098;47.658;8.578;2023-11-21T13:33:04;96065.00;;;10.50
66299;BMP180;53098;47.658;8.578;2023-11-21T13:35:29;96054.00;;;10.50
66299;BMP180;53098;47.658;8.578;2023-11-21T13:37:55;96056.00;;;10.30
66299;BMP180;53098;47.658;8.578;2023-11-21T13:40:21;96059.00;;;10.40
66299;BMP180;53098;47.658;8.578;2023-11-21T13:42:47;96058.00;;;10.50
66299;BMP180;53098;47.658;8.578;2023-11-21T13:45:12;96066.00;;;10.50
66299;BMP180;53098;47.658;8.578;2023-11-21T13:47:38;96062.00;;;10.60
66299;BMP180;53098;47.658;8.578;2023-11-21T13:50:04;96071.00;;;10.70
66299;BMP180;53098;47.658;8.578;2023-11-21T13:52:30;96058.00;;;10.80
66299;BMP180;53098;47.658;8.578;2023-11-21T13:54:55;96051.00;;;10.90
66299;BMP180;53098;47.658;8.578;2023-11-21T13:57:20;96048.00;;;11.10
66299;BMP180;53098;47.658;8.578;2023-11-21T13:59:46;96057.00;;;11.20
66299;BMP180;53098;47.658;8.578;2023-11-21T14:02:11;96062.00;;;11.10
66299;BMP180;53098;47.658;8.578;2023-11-21T14:04:37;96068.00;;;11.10
66299;BMP180;53098;47.658;8.578;2023-11-21T14:07:02;96073.00;;;11.20
66299;BMP180;53098;47.658;8.578;2023-11-21T14:09:28;96078.00;;;11.20
66299;BMP180;53098;47.658;8.578;2023-11-21T14:11:55;96073.00;;;11.20
66299;BMP180;53098;47.658;8.578;2023-11-21T14:14:22;96076.00;;;11.10
66299;BMP180;53098;47.658;8.578;2023-11-21T14:16:48;96083.00;;;11.20
66299;BMP180;53098;47.658;8.578;2023-11-21T14:19:13;96080.00;;;11.10